sensor_id;sensor_type;location;lat;lon;timestamp;temperature;humidity
5415;DHT22;2730;51.512;7.504;2024-03-29T00:01:47;7.80;99.90
5415;DHT22;2730;51.512;7.504;2024-03-29T00:04:14;7.90;99.90
5415;DHT22;2730;51.512;7.504;2024-03-29T00:06:39;7.90;99.90
5415;DHT22;2730;51.512;7.504;2024-03-29T00:09:05;7.90;99.90
5415;DHT22;2730;51.512;7.504;2024-03-29T00:11:31;7.80;99.90
5415;DHT22;2730;51.512;7.504;2024-03-29T00:13:57;7.70;99.90
5415;DHT22;2730;51.512;7.504;2024-03-29T00:16:23;7.70;99.90
5415;DHT22;2730;51.512;7.504;2024-03-29T00:18:50;7.80;99.90
5415;DHT22;2730;51.512;7.504;2024-03-29T00:21:16;7.90;99.90
5415;DHT22;2730;51.512;7.504;2024-03-29T00:23:42;8.00;99.90
5415;DHT22;2730;51.512;7.504;2024-03-29T00:26:08;8.00;99.90
5415;DHT22;2730;51.512;7.504;2024-03-29T00:28:34;8.10;99.90
5415;DHT22;2730;51.512;7.504;2024-03-29T00:31:00;8.10;99.90
5415;DHT22;2730;51.512;7.504;2024-03-29T00:33:26;8.00;99.90
5415;DHT22;2730;51.512;7.504;2024-03-29T00:35:53;8.10;99.90
5415;DHT22;2730;51.512;7.504;2024-03-29T00:38:19;8.00;99.90
5415;DHT22;2730;51.512;7.504;2024-03-29T00:40:44;8.00;99.90
5415;DHT22;2730;51.512;7.504;2024-03-29T00:43:10;8.00;99.90
5415;DHT22;2730;51.512;7.504;2024-03-29T00:45:36;8.00;99.90
5415;DHT22;2730;51.512;7.504;2024-03-29T00:48:02;7.80;99.90
5415;DHT22;2730;51.512;7.504;2024-03-29T00:50:28;7.90;99.90
5415;DHT22;2730;51.512;7.504;2024-03-29T00:52:55;7.90;99.90
5415;DHT22;2730;51.512;7.504;2024-03-29T00:55:22;7.80;99.90
5415;DHT22;2730;51.512;7.504;2024-03-29T00:57:47;7.80;99.90
5415;DHT22;2730;51.512;7.504;2024-03-29T01:00:14;7.80;99.90
5415;DHT22;2730;51.512;7.504;2024-03-29T01:02:39;7.70;99.90
5415;DHT22;2730;51.512;7.504;2024-03-29T01:05:06;7.60;99.90
5415;DHT22;2730;51.512;7.504;2024-03-29T01:07:32;7.50;99.90
5415;DHT22;2730;51.512;7.504;2024-03-29T01:09:59;7.40;99.90
5415;DHT22;2730;51.512;7.504;2024-03-29T01:12:25;7.50;99.90
5415;DHT22;2730;51.512;7.504;2024-03-29T01:14:51;7.60;99.90
5415;DHT22;2730;51.512;7.504;2024-03-29T01:17:17;7.60;99.90
5415;DHT22;2730;51.512;7.504;2024-03-29T01:19:43;7.50;99.90
5415;DHT22;2730;51.512;7.504;2024-03-29T01:22:09;7.50;1.00
5415;DHT22;2730;51.512;7.504;2024-03-29T01:24:35;7.60;99.90
5415;DHT22;2730;51.512;7.504;2024-03-29T01:27:02;7.50;99.90
5415;DHT22;2730;51.512;7.504;2024-03-29T01:29:28;7.40;99.90
5415;DHT22;2730;51.512;7.504;2024-03-29T01:31:54;7.40;1.00
5415;DHT22;2730;51.512;7.504;2024-03-29T01:34:19;7.50;1.00
5415;DHT22;2730;51.512;7.504;2024-03-29T01:36:45;7.60;1.00
5415;DHT22;2730;51.512;7.504;2024-03-29T01:39:11;7.60;99.90
5415;DHT22;2730;51.512;7.504;2024-03-29T01:41:37;7.60;99.90
5415;DHT22;2730;51.512;7.504;2024-03-29T01:44:04;7.60;99.90
5415;DHT22;2730;51.512;7.504;2024-03-29T01:46:35;7.60;1.00
5415;DHT22;2730;51.512;7.504;2024-03-29T01:49:03;7.70;99.90
5415;DHT22;2730;51.512;7.504;2024-03-29T01:51:30;7.80;99.90
5415;DHT22;2730;51.512;7.504;2024-03-29T01:53:58;7.80;99.90
5415;DHT22;2730;51.512;7.504;2024-03-29T01:56:26;7.70;99.90
5415;DHT22;2730;51.512;7.504;2024-03-29T01:58:55;7.80;99.90
5415;DHT22;2730;51.512;7.504;2024-03-29T02:01:26;7.80;99.90
5415;DHT22;2730;51.512;7.504;2024-03-29T02:03:53;7.80;99.90
5415;DHT22;2730;51.512;7.504;2024-03-29T02:06:20;7.90;99.90
5415;DHT22;2730;51.512;7.504;2024-03-29T02:08:49;8.10;99.90
5415;DHT22;2730;51.512;7.504;2024-03-29T02:11:18;8.20;99.90
5415;DHT22;2730;51.512;7.504;2024-03-29T02:13:45;8.20;99.90
5415;DHT22;2730;51.512;7.504;2024-03-29T02:16:12;8.20;99.90
5415;DHT22;2730;51.512;7.504;2024-03-29T02:18:40;8.20;99.90
5415;DHT22;2730;51.512;7.504;2024-03-29T02:21:07;8.30;99.90
5415;DHT22;2730;51.512;7.504;2024-03-29T02:23:36;8.30;99.90
5415;DHT22;2730;51.512;7.504;2024-03-29T02:26:05;8.40;99.90
5415;DHT22;2730;51.512;7.504;2024-03-29T02:28:32;8.40;99.90
5415;DHT22;2730;51.512;7.504;2024-03-29T02:30:58;8.50;99.90
5415;DHT22;2730;51.512;7.504;2024-03-29T02:33:25;8.40;99.90
5415;DHT22;2730;51.512;7.504;2024-03-29T02:35:52;8.60;99.90
5415;DHT22;2730;51.512;7.504;2024-03-29T02:38:19;8.50;99.90
5415;DHT22;2730;51.512;7.504;2024-03-29T02:40:45;8.60;99.90
5415;DHT22;2730;51.512;7.504;2024-03-29T02:43:13;8.60;99.90
5415;DHT22;2730;51.512;7.504;2024-03-29T02:45:40;8.70;99.90
5415;DHT22;2730;51.512;7.504;2024-03-29T02:48:07;8.70;99.90
5415;DHT22;2730;51.512;7.504;2024-03-29T02:50:34;8.80;99.90
5415;DHT22;2730;51.512;7.504;2024-03-29T02:52:59;8.80;99.90
5415;DHT22;2730;51.512;7.504;2024-03-29T02:55:26;8.90;99.90
5415;DHT22;2730;51.512;7.504;2024-03-29T02:57:52;9.10;99.90
5415;DHT22;2730;51.512;7.504;2024-03-29T03:00:20;9.20;99.90
5415;DHT22;2730;51.512;7.504;2024-03-29T03:02:46;9.20;99.90
5415;DHT22;2730;51.512;7.504;2024-03-29T03:05:13;9.30;99.90
5415;DHT22;2730;51.512;7.504;2024-03-29T03:07:39;9.40;99.90
5415;DHT22;2730;51.512;7.504;2024-03-29T03:10:23;9.50;99.90
5415;DHT22;2730;51.512;7.504;2024-03-29T03:13:07;9.50;99.90
5415;DHT22;2730;51.512;7.504;2024-03-29T03:15:35;9.70;99.90
5415;DHT22;2730;51.512;7.504;2024-03-29T03:18:02;9.70;99.90
5415;DHT22;2730;51.512;7.504;2024-03-29T03:20:28;9.70;99.90
5415;DHT22;2730;51.512;7.504;2024-03-29T03:22:57;9.70;99.90
5415;DHT22;2730;51.512;7.504;2024-03-29T03:25:24;9.70;99.90
5415;DHT22;2730;51.512;7.504;2024-03-29T03:27:50;9.80;99.90
5415;DHT22;2730;51.512;7.504;2024-03-29T03:30:16;9.90;99.90
5415;DHT22;2730;51.512;7.504;2024-03-29T03:32:45;9.90;99.90
5415;DHT22;2730;51.512;7.504;2024-03-29T03:35:10;9.90;99.90
5415;DHT22;2730;51.512;7.504;2024-03-29T03:37:37;9.80;99.90
5415;DHT22;2730;51.512;7.504;2024-03-29T03:40:03;9.80;99.90
5415;DHT22;2730;51.512;7.504;2024-03-29T03:42:31;9.70;99.90
5415;DHT22;2730;51.512;7.504;2024-03-29T03:44:57;9.70;99.90
5415;DHT22;2730;51.512;7.504;2024-03-29T03:47:24;9.60;99.90
5415;DHT22;2730;51.512;7.504;2024-03-29T03:49:51;9.60;99.90
5415;DHT22;2730;51.512;7.504;2024-03-29T03:52:17;9.50;99.90
5415;DHT22;2730;51.512;7.504;2024-03-29T03:54:43;9.40;99.90
5415;DHT22;2730;51.512;7.504;2024-03-29T03:57:10;9.30;99.90
5415;DHT22;2730;51.512;7.504;2024-03-29T03:59:36;9.30;99.90
5415;DHT22;2730;51.512;7.504;2024-03-29T04:02:03;9.20;99.90
5415;DHT22;2730;51.512;7.504;2024-03-29T04:04:28;9.10;99.90
5415;DHT22;2730;51.512;7.504;2024-03-29T04:06:56;9.10;99.90
5415;DHT22;2730;51.512;7.504;2024-03-29T04:09:22;9.00;1.00
5415;DHT22;2730;51.512;7.504;2024-03-29T04:11:49;8.90;1.00
5415;DHT22;2730;51.512;7.504;2024-03-29T04:14:15;8.90;1.00
5415;DHT22;2730;51.512;7.504;2024-03-29T04:16:41;9.00;1.00
5415;DHT22;2730;51.512;7.504;2024-03-29T04:19:07;8.90;1.00
5415;DHT22;2730;51.512;7.504;2024-03-29T04:21:34;8.80;1.00
5415;DHT22;2730;51.512;7.504;2024-03-29T04:24:01;8.70;16.10
5415;DHT22;2730;51.512;7.504;2024-03-29T04:26:28;8.70;99.90
5415;DHT22;2730;51.512;7.504;2024-03-29T04:28:53;8.70;99.90
5415;DHT22;2730;51.512;7.504;2024-03-29T04:31:20;8.60;99.90
5415;DHT22;2730;51.512;7.504;2024-03-29T04:33:46;8.50;99.90
5415;DHT22;2730;51.512;7.504;2024-03-29T04:36:13;8.50;1.00
5415;DHT22;2730;51.512;7.504;2024-03-29T04:38:38;8.40;1.00
5415;DHT22;2730;51.512;7.504;2024-03-29T04:41:06;8.40;1.00
5415;DHT22;2730;51.512;7.504;2024-03-29T04:43:33;8.40;99.90
5415;DHT22;2730;51.512;7.504;2024-03-29T04:46:03;8.40;43.10
5415;DHT22;2730;51.512;7.504;2024-03-29T04:48:34;8.30;1.00
5415;DHT22;2730;51.512;7.504;2024-03-29T04:51:01;8.50;1.00
5415;DHT22;2730;51.512;7.504;2024-03-29T04:53:27;8.50;1.00
5415;DHT22;2730;51.512;7.504;2024-03-29T04:55:54;8.60;1.00
5415;DHT22;2730;51.512;7.504;2024-03-29T04:58:23;8.50;1.00
5415;DHT22;2730;51.512;7.504;2024-03-29T05:00:51;8.50;1.00
5415;DHT22;2730;51.512;7.504;2024-03-29T05:03:18;8.40;1.00
5415;DHT22;2730;51.512;7.504;2024-03-29T05:05:45;8.40;99.90
5415;DHT22;2730;51.512;7.504;2024-03-29T05:08:13;8.40;99.90
5415;DHT22;2730;51.512;7.504;2024-03-29T05:10:40;8.40;63.40
5415;DHT22;2730;51.512;7.504;2024-03-29T05:13:06;8.30;1.00
5415;DHT22;2730;51.512;7.504;2024-03-29T05:15:35;8.30;1.00
5415;DHT22;2730;51.512;7.504;2024-03-29T05:18:02;8.10;99.90
5415;DHT22;2730;51.512;7.504;2024-03-29T05:20:29;8.10;1.00
5415;DHT22;2730;51.512;7.504;2024-03-29T05:22:57;8.00;1.00
5415;DHT22;2730;51.512;7.504;2024-03-29T05:25:23;8.00;1.00
5415;DHT22;2730;51.512;7.504;2024-03-29T05:27:50;7.90;99.90
5415;DHT22;2730;51.512;7.504;2024-03-29T05:30:17;7.80;99.90
5415;DHT22;2730;51.512;7.504;2024-03-29T05:32:45;7.80;99.90
5415;DHT22;2730;51.512;7.504;2024-03-29T05:35:12;7.70;1.00
5415;DHT22;2730;51.512;7.504;2024-03-29T05:37:40;7.70;99.90
5415;DHT22;2730;51.512;7.504;2024-03-29T05:40:08;7.70;99.90
5415;DHT22;2730;51.512;7.504;2024-03-29T05:42:35;7.60;1.00
5415;DHT22;2730;51.512;7.504;2024-03-29T05:45:04;7.60;1.00
5415;DHT22;2730;51.512;7.504;2024-03-29T05:47:32;7.60;99.90
5415;DHT22;2730;51.512;7.504;2024-03-29T05:49:59;7.50;99.90
5415;DHT22;2730;51.512;7.504;2024-03-29T05:52:25;7.60;1.00
5415;DHT22;2730;51.512;7.504;2024-03-29T05:54:52;7.60;1.00
5415;DHT22;2730;51.512;7.504;2024-03-29T05:57:19;7.60;99.90
5415;DHT22;2730;51.512;7.504;2024-03-29T05:59:49;7.60;99.90
5415;DHT22;2730;51.512;7.504;2024-03-29T06:02:16;7.60;99.90
5415;DHT22;2730;51.512;7.504;2024-03-29T06:04:43;7.60;1.00
5415;DHT22;2730;51.512;7.504;2024-03-29T06:07:14;7.60;99.90
5415;DHT22;2730;51.512;7.504;2024-03-29T06:09:40;7.60;99.90
5415;DHT22;2730;51.512;7.504;2024-03-29T06:12:08;7.50;1.00
5415;DHT22;2730;51.512;7.504;2024-03-29T06:14:37;7.50;1.00
5415;DHT22;2730;51.512;7.504;2024-03-29T06:17:30;7.60;1.00
5415;DHT22;2730;51.512;7.504;2024-03-29T06:19:56;7.60;1.00
5415;DHT22;2730;51.512;7.504;2024-03-29T06:22:27;7.60;1.00
5415;DHT22;2730;51.512;7.504;2024-03-29T06:24:55;7.60;1.00
5415;DHT22;2730;51.512;7.504;2024-03-29T06:27:24;7.60;1.00
5415;DHT22;2730;51.512;7.504;2024-03-29T06:29:51;7.70;1.00
5415;DHT22;2730;51.512;7.504;2024-03-29T06:32:18;7.70;1.00
5415;DHT22;2730;51.512;7.504;2024-03-29T06:34:45;7.70;1.00
5415;DHT22;2730;51.512;7.504;2024-03-29T06:37:12;7.80;1.00
5415;DHT22;2730;51.512;7.504;2024-03-29T06:39:40;7.80;1.00
5415;DHT22;2730;51.512;7.504;2024-03-29T06:42:07;7.90;1.00
5415;DHT22;2730;51.512;7.504;2024-03-29T06:44:34;8.00;1.00
5415;DHT22;2730;51.512;7.504;2024-03-29T06:47:02;8.10;1.00
5415;DHT22;2730;51.512;7.504;2024-03-29T06:49:29;8.20;92.30
5415;DHT22;2730;51.512;7.504;2024-03-29T06:51:57;8.30;99.90
5415;DHT22;2730;51.512;7.504;2024-03-29T06:54:26;8.40;1.00
5415;DHT22;2730;51.512;7.504;2024-03-29T06:56:55;8.50;99.90
5415;DHT22;2730;51.512;7.504;2024-03-29T06:59:22;8.50;1.00
5415;DHT22;2730;51.512;7.504;2024-03-29T07:01:49;8.50;99.90
5415;DHT22;2730;51.512;7.504;2024-03-29T07:04:17;8.50;99.90
5415;DHT22;2730;51.512;7.504;2024-03-29T07:06:45;8.60;60.00
5415;DHT22;2730;51.512;7.504;2024-03-29T07:09:13;8.80;99.90
5415;DHT22;2730;51.512;7.504;2024-03-29T07:11:40;8.80;60.60
5415;DHT22;2730;51.512;7.504;2024-03-29T07:14:08;9.00;99.90
5415;DHT22;2730;51.512;7.504;2024-03-29T07:16:34;8.90;99.90
5415;DHT22;2730;51.512;7.504;2024-03-29T07:19:01;8.90;1.00
5415;DHT22;2730;51.512;7.504;2024-03-29T07:21:29;9.00;1.00
5415;DHT22;2730;51.512;7.504;2024-03-29T07:23:55;9.00;1.00
5415;DHT22;2730;51.512;7.504;2024-03-29T07:26:22;9.10;99.90
5415;DHT22;2730;51.512;7.504;2024-03-29T07:28:49;9.00;82.60
5415;DHT22;2730;51.512;7.504;2024-03-29T07:31:17;9.10;1.00
5415;DHT22;2730;51.512;7.504;2024-03-29T07:33:44;9.10;20.70
5415;DHT22;2730;51.512;7.504;2024-03-29T07:36:10;9.20;1.00
5415;DHT22;2730;51.512;7.504;2024-03-29T07:38:38;9.40;1.00
5415;DHT22;2730;51.512;7.504;2024-03-29T07:41:05;9.60;99.90
5415;DHT22;2730;51.512;7.504;2024-03-29T07:43:38;9.70;1.00
5415;DHT22;2730;51.512;7.504;2024-03-29T07:46:05;9.90;1.00
5415;DHT22;2730;51.512;7.504;2024-03-29T07:48:35;10.00;99.90
5415;DHT22;2730;51.512;7.504;2024-03-29T07:51:02;10.10;1.00
5415;DHT22;2730;51.512;7.504;2024-03-29T07:53:29;10.20;1.00
5415;DHT22;2730;51.512;7.504;2024-03-29T07:55:56;10.20;1.00
5415;DHT22;2730;51.512;7.504;2024-03-29T07:58:23;10.30;1.00
5415;DHT22;2730;51.512;7.504;2024-03-29T08:00:51;10.30;1.00
5415;DHT22;2730;51.512;7.504;2024-03-29T08:03:18;10.40;99.90
5415;DHT22;2730;51.512;7.504;2024-03-29T08:05:56;10.50;99.90
5415;DHT22;2730;51.512;7.504;2024-03-29T08:08:23;10.50;51.60
5415;DHT22;2730;51.512;7.504;2024-03-29T08:10:50;10.50;1.00
5415;DHT22;2730;51.512;7.504;2024-03-29T08:13:17;10.50;1.30
5415;DHT22;2730;51.512;7.504;2024-03-29T08:15:46;10.50;99.90
5415;DHT22;2730;51.512;7.504;2024-03-29T08:18:13;10.50;99.90
5415;DHT22;2730;51.512;7.504;2024-03-29T08:20:39;10.60;99.90
5415;DHT22;2730;51.512;7.504;2024-03-29T08:23:07;10.60;1.00
5415;DHT22;2730;51.512;7.504;2024-03-29T08:25:34;10.60;99.90
5415;DHT22;2730;51.512;7.504;2024-03-29T08:28:01;10.60;99.90
5415;DHT22;2730;51.512;7.504;2024-03-29T08:30:28;10.60;99.90
5415;DHT22;2730;51.512;7.504;2024-03-29T08:33:00;10.70;99.90
5415;DHT22;2730;51.512;7.504;2024-03-29T08:35:28;10.70;1.00
5415;DHT22;2730;51.512;7.504;2024-03-29T08:37:54;10.80;1.00
5415;DHT22;2730;51.512;7.504;2024-03-29T08:40:22;10.80;1.00
5415;DHT22;2730;51.512;7.504;2024-03-29T08:42:49;10.90;1.00
5415;DHT22;2730;51.512;7.504;2024-03-29T08:45:16;10.90;1.00
5415;DHT22;2730;51.512;7.504;2024-03-29T08:47:43;11.00;1.00
5415;DHT22;2730;51.512;7.504;2024-03-29T08:50:09;11.00;1.00
5415;DHT22;2730;51.512;7.504;2024-03-29T08:52:36;11.10;99.90
5415;DHT22;2730;51.512;7.504;2024-03-29T08:55:04;11.20;99.90
5415;DHT22;2730;51.512;7.504;2024-03-29T08:57:32;11.30;99.90
5415;DHT22;2730;51.512;7.504;2024-03-29T08:59:59;11.40;99.90
5415;DHT22;2730;51.512;7.504;2024-03-29T09:02:26;11.40;99.90
5415;DHT22;2730;51.512;7.504;2024-03-29T09:04:53;11.40;99.90
5415;DHT22;2730;51.512;7.504;2024-03-29T09:07:20;11.30;1.00
5415;DHT22;2730;51.512;7.504;2024-03-29T09:09:48;11.30;1.00
5415;DHT22;2730;51.512;7.504;2024-03-29T09:12:15;11.40;99.90
5415;DHT22;2730;51.512;7.504;2024-03-29T09:14:45;11.40;1.00
5415;DHT22;2730;51.512;7.504;2024-03-29T09:17:12;11.50;1.00
5415;DHT22;2730;51.512;7.504;2024-03-29T09:19:38;11.60;99.90
5415;DHT22;2730;51.512;7.504;2024-03-29T09:22:05;11.70;99.90
5415;DHT22;2730;51.512;7.504;2024-03-29T09:24:33;11.80;99.90
5415;DHT22;2730;51.512;7.504;2024-03-29T09:27:00;12.10;1.00
5415;DHT22;2730;51.512;7.504;2024-03-29T09:29:26;12.40;1.00
5415;DHT22;2730;51.512;7.504;2024-03-29T09:31:55;12.50;1.00
5415;DHT22;2730;51.512;7.504;2024-03-29T09:34:21;12.60;99.90
5415;DHT22;2730;51.512;7.504;2024-03-29T09:36:49;12.70;99.90
5415;DHT22;2730;51.512;7.504;2024-03-29T09:39:16;12.60;99.90
5415;DHT22;2730;51.512;7.504;2024-03-29T09:41:44;12.60;1.00
5415;DHT22;2730;51.512;7.504;2024-03-29T09:44:11;12.60;1.00
5415;DHT22;2730;51.512;7.504;2024-03-29T09:46:38;12.60;1.00
5415;DHT22;2730;51.512;7.504;2024-03-29T09:49:07;12.70;1.00
5415;DHT22;2730;51.512;7.504;2024-03-29T09:51:35;12.60;99.90
5415;DHT22;2730;51.512;7.504;2024-03-29T09:54:03;12.60;99.90
5415;DHT22;2730;51.512;7.504;2024-03-29T09:56:33;12.70;99.90
5415;DHT22;2730;51.512;7.504;2024-03-29T09:59:01;13.00;99.90
5415;DHT22;2730;51.512;7.504;2024-03-29T10:01:29;13.00;90.90
5415;DHT22;2730;51.512;7.504;2024-03-29T10:03:59;13.10;99.90
5415;DHT22;2730;51.512;7.504;2024-03-29T10:06:29;13.30;42.40
5415;DHT22;2730;51.512;7.504;2024-03-29T10:08:57;13.60;1.00
5415;DHT22;2730;51.512;7.504;2024-03-29T10:11:23;13.80;1.00
5415;DHT22;2730;51.512;7.504;2024-03-29T10:13:50;13.80;1.00
5415;DHT22;2730;51.512;7.504;2024-03-29T10:16:19;13.90;1.00
5415;DHT22;2730;51.512;7.504;2024-03-29T10:18:48;13.90;1.00
5415;DHT22;2730;51.512;7.504;2024-03-29T10:21:15;13.90;1.00
5415;DHT22;2730;51.512;7.504;2024-03-29T10:23:43;13.90;1.00
5415;DHT22;2730;51.512;7.504;2024-03-29T10:26:12;13.90;1.00
5415;DHT22;2730;51.512;7.504;2024-03-29T10:28:39;13.90;1.00
5415;DHT22;2730;51.512;7.504;2024-03-29T10:31:06;13.90;1.00
5415;DHT22;2730;51.512;7.504;2024-03-29T10:33:35;13.90;1.00
5415;DHT22;2730;51.512;7.504;2024-03-29T10:36:03;14.00;1.00
5415;DHT22;2730;51.512;7.504;2024-03-29T10:38:31;14.10;1.00
5415;DHT22;2730;51.512;7.504;2024-03-29T10:40:59;14.10;1.00
5415;DHT22;2730;51.512;7.504;2024-03-29T10:43:29;14.30;1.00
5415;DHT22;2730;51.512;7.504;2024-03-29T10:45:56;14.40;1.00
5415;DHT22;2730;51.512;7.504;2024-03-29T10:48:25;14.40;1.00
5415;DHT22;2730;51.512;7.504;2024-03-29T10:50:53;14.40;1.00
5415;DHT22;2730;51.512;7.504;2024-03-29T10:53:22;14.40;1.00
5415;DHT22;2730;51.512;7.504;2024-03-29T10:55:51;14.40;1.00
5415;DHT22;2730;51.512;7.504;2024-03-29T10:58:22;14.30;1.00
5415;DHT22;2730;51.512;7.504;2024-03-29T11:00:55;14.40;1.00
5415;DHT22;2730;51.512;7.504;2024-03-29T11:03:29;14.30;1.00
5415;DHT22;2730;51.512;7.504;2024-03-29T11:06:02;14.30;1.00
5415;DHT22;2730;51.512;7.504;2024-03-29T11:08:32;14.50;1.00
5415;DHT22;2730;51.512;7.504;2024-03-29T11:11:01;14.90;1.00
5415;DHT22;2730;51.512;7.504;2024-03-29T11:13:34;15.10;1.00
5415;DHT22;2730;51.512;7.504;2024-03-29T11:16:03;15.50;1.00
5415;DHT22;2730;51.512;7.504;2024-03-29T11:18:30;15.60;99.90
5415;DHT22;2730;51.512;7.504;2024-03-29T11:20:58;15.50;99.90
5415;DHT22;2730;51.512;7.504;2024-03-29T11:23:27;15.60;99.90
5415;DHT22;2730;51.512;7.504;2024-03-29T11:25:54;15.70;99.90
5415;DHT22;2730;51.512;7.504;2024-03-29T11:28:24;15.80;99.90
5415;DHT22;2730;51.512;7.504;2024-03-29T11:30:53;15.80;99.90
5415;DHT22;2730;51.512;7.504;2024-03-29T11:33:30;15.60;99.90
5415;DHT22;2730;51.512;7.504;2024-03-29T11:35:57;15.80;99.90
5415;DHT22;2730;51.512;7.504;2024-03-29T11:38:34;15.70;99.90
5415;DHT22;2730;51.512;7.504;2024-03-29T11:41:05;15.80;99.90
5415;DHT22;2730;51.512;7.504;2024-03-29T11:43:33;15.70;99.90
5415;DHT22;2730;51.512;7.504;2024-03-29T11:46:02;15.70;99.90
5415;DHT22;2730;51.512;7.504;2024-03-29T11:48:30;15.90;99.90
5415;DHT22;2730;51.512;7.504;2024-03-29T11:50:58;16.10;99.90
5415;DHT22;2730;51.512;7.504;2024-03-29T11:53:25;15.90;99.90
5415;DHT22;2730;51.512;7.504;2024-03-29T11:55:53;15.70;99.90
5415;DHT22;2730;51.512;7.504;2024-03-29T11:58:21;15.60;99.90
5415;DHT22;2730;51.512;7.504;2024-03-29T12:00:49;15.50;99.90
5415;DHT22;2730;51.512;7.504;2024-03-29T12:03:18;15.60;99.90
5415;DHT22;2730;51.512;7.504;2024-03-29T12:05:46;15.70;99.90
5415;DHT22;2730;51.512;7.504;2024-03-29T12:08:13;15.70;99.90
5415;DHT22;2730;51.512;7.504;2024-03-29T12:10:40;15.70;99.90
5415;DHT22;2730;51.512;7.504;2024-03-29T12:13:08;15.70;99.90
5415;DHT22;2730;51.512;7.504;2024-03-29T12:15:35;15.70;99.90
5415;DHT22;2730;51.512;7.504;2024-03-29T12:18:03;15.80;99.90
5415;DHT22;2730;51.512;7.504;2024-03-29T12:20:32;15.70;99.90
5415;DHT22;2730;51.512;7.504;2024-03-29T12:23:00;15.60;99.90
5415;DHT22;2730;51.512;7.504;2024-03-29T12:25:27;15.50;99.90
5415;DHT22;2730;51.512;7.504;2024-03-29T12:27:55;15.50;99.90
5415;DHT22;2730;51.512;7.504;2024-03-29T12:30:22;15.40;99.90
5415;DHT22;2730;51.512;7.504;2024-03-29T12:32:48;15.40;99.90
5415;DHT22;2730;51.512;7.504;2024-03-29T12:35:16;15.40;99.90
5415;DHT22;2730;51.512;7.504;2024-03-29T12:37:50;15.40;99.90
5415;DHT22;2730;51.512;7.504;2024-03-29T12:40:19;15.30;99.90
5415;DHT22;2730;51.512;7.504;2024-03-29T12:42:48;15.20;99.90
5415;DHT22;2730;51.512;7.504;2024-03-29T12:45:15;15.10;99.90
5415;DHT22;2730;51.512;7.504;2024-03-29T12:47:43;15.10;99.90
5415;DHT22;2730;51.512;7.504;2024-03-29T12:50:13;15.00;99.90
5415;DHT22;2730;51.512;7.504;2024-03-29T12:52:42;15.00;99.90
5415;DHT22;2730;51.512;7.504;2024-03-29T12:55:10;14.90;99.90
5415;DHT22;2730;51.512;7.504;2024-03-29T12:57:38;15.00;99.90
5415;DHT22;2730;51.512;7.504;2024-03-29T13:00:08;14.90;1.00
5415;DHT22;2730;51.512;7.504;2024-03-29T13:02:36;15.00;1.00
5415;DHT22;2730;51.512;7.504;2024-03-29T13:05:03;14.80;1.00
5415;DHT22;2730;51.512;7.504;2024-03-29T13:07:30;14.50;1.00
5415;DHT22;2730;51.512;7.504;2024-03-29T13:09:57;14.30;1.00
5415;DHT22;2730;51.512;7.504;2024-03-29T13:12:29;14.30;1.00
5415;DHT22;2730;51.512;7.504;2024-03-29T13:14:56;14.10;79.50
5415;DHT22;2730;51.512;7.504;2024-03-29T13:17:23;13.90;99.90
5415;DHT22;2730;51.512;7.504;2024-03-29T13:19:49;13.80;1.00
5415;DHT22;2730;51.512;7.504;2024-03-29T13:22:16;13.60;99.90
5415;DHT22;2730;51.512;7.504;2024-03-29T13:24:43;13.40;1.00
5415;DHT22;2730;51.512;7.504;2024-03-29T13:27:10;13.20;1.00
5415;DHT22;2730;51.512;7.504;2024-03-29T13:29:39;13.20;99.90
5415;DHT22;2730;51.512;7.504;2024-03-29T13:32:06;13.00;99.90
5415;DHT22;2730;51.512;7.504;2024-03-29T13:34:33;12.70;1.00
5415;DHT22;2730;51.512;7.504;2024-03-29T13:37:00;12.70;1.00
5415;DHT22;2730;51.512;7.504;2024-03-29T13:39:27;12.60;75.90
5415;DHT22;2730;51.512;7.504;2024-03-29T13:41:54;12.60;1.00
5415;DHT22;2730;51.512;7.504;2024-03-29T13:44:21;12.60;1.00
5415;DHT22;2730;51.512;7.504;2024-03-29T13:46:49;12.60;1.00
5415;DHT22;2730;51.512;7.504;2024-03-29T13:49:16;12.70;1.00
5415;DHT22;2730;51.512;7.504;2024-03-29T13:51:46;12.80;9.90
5415;DHT22;2730;51.512;7.504;2024-03-29T13:54:12;12.90;35.20
5415;DHT22;2730;51.512;7.504;2024-03-29T13:56:39;13.00;99.90
5415;DHT22;2730;51.512;7.504;2024-03-29T13:59:06;12.90;1.00
5415;DHT22;2730;51.512;7.504;2024-03-29T14:01:32;12.90;99.90
5415;DHT22;2730;51.512;7.504;2024-03-29T14:04:00;13.00;94.00
5415;DHT22;2730;51.512;7.504;2024-03-29T14:06:27;13.10;1.00
5415;DHT22;2730;51.512;7.504;2024-03-29T14:08:54;13.20;6.70
5415;DHT22;2730;51.512;7.504;2024-03-29T14:11:21;13.20;1.00
5415;DHT22;2730;51.512;7.504;2024-03-29T14:13:48;13.20;99.90
5415;DHT22;2730;51.512;7.504;2024-03-29T14:16:21;13.10;1.00
5415;DHT22;2730;51.512;7.504;2024-03-29T14:18:47;13.20;1.00
5415;DHT22;2730;51.512;7.504;2024-03-29T14:21:16;13.20;1.00
5415;DHT22;2730;51.512;7.504;2024-03-29T14:23:42;13.20;1.00
5415;DHT22;2730;51.512;7.504;2024-03-29T14:26:09;13.30;99.90
5415;DHT22;2730;51.512;7.504;2024-03-29T14:28:36;13.40;99.90
5415;DHT22;2730;51.512;7.504;2024-03-29T14:31:03;13.50;1.30
5415;DHT22;2730;51.512;7.504;2024-03-29T14:33:30;13.60;1.00
5415;DHT22;2730;51.512;7.504;2024-03-29T14:35:57;13.60;1.00
5415;DHT22;2730;51.512;7.504;2024-03-29T14:38:25;13.60;99.90
5415;DHT22;2730;51.512;7.504;2024-03-29T14:40:52;13.70;99.90
5415;DHT22;2730;51.512;7.504;2024-03-29T14:43:18;13.70;1.00
5415;DHT22;2730;51.512;7.504;2024-03-29T14:45:45;13.70;1.00
5415;DHT22;2730;51.512;7.504;2024-03-29T14:48:14;13.90;99.90
5415;DHT22;2730;51.512;7.504;2024-03-29T14:50:41;13.80;99.90
5415;DHT22;2730;51.512;7.504;2024-03-29T14:53:08;13.90;29.30
5415;DHT22;2730;51.512;7.504;2024-03-29T14:55:36;14.00;36.60
5415;DHT22;2730;51.512;7.504;2024-03-29T14:58:05;14.10;28.70
5415;DHT22;2730;51.512;7.504;2024-03-29T15:00:31;14.00;99.90
5415;DHT22;2730;51.512;7.504;2024-03-29T15:02:58;14.00;99.90
5415;DHT22;2730;51.512;7.504;2024-03-29T15:05:25;14.00;99.90
5415;DHT22;2730;51.512;7.504;2024-03-29T15:07:52;14.10;99.90
5415;DHT22;2730;51.512;7.504;2024-03-29T15:10:19;14.20;99.90
5415;DHT22;2730;51.512;7.504;2024-03-29T15:12:48;14.30;1.00
5415;DHT22;2730;51.512;7.504;2024-03-29T15:15:15;14.20;99.90
5415;DHT22;2730;51.512;7.504;2024-03-29T15:17:42;14.30;31.70
5415;DHT22;2730;51.512;7.504;2024-03-29T15:20:10;14.20;1.00
5415;DHT22;2730;51.512;7.504;2024-03-29T15:22:37;14.20;1.00
5415;DHT22;2730;51.512;7.504;2024-03-29T15:25:05;14.20;1.00
5415;DHT22;2730;51.512;7.504;2024-03-29T15:27:32;14.10;1.00
5415;DHT22;2730;51.512;7.504;2024-03-29T15:30:14;14.10;1.00
5415;DHT22;2730;51.512;7.504;2024-03-29T15:32:41;14.10;1.00
5415;DHT22;2730;51.512;7.504;2024-03-29T15:35:08;14.10;1.00
5415;DHT22;2730;51.512;7.504;2024-03-29T15:37:36;14.20;1.00
5415;DHT22;2730;51.512;7.504;2024-03-29T15:40:03;14.30;1.00
5415;DHT22;2730;51.512;7.504;2024-03-29T15:42:30;14.30;1.00
5415;DHT22;2730;51.512;7.504;2024-03-29T15:44:57;14.40;99.90
5415;DHT22;2730;51.512;7.504;2024-03-29T15:47:25;14.30;99.90
5415;DHT22;2730;51.512;7.504;2024-03-29T15:49:54;14.30;99.90
5415;DHT22;2730;51.512;7.504;2024-03-29T15:52:21;14.10;99.90
5415;DHT22;2730;51.512;7.504;2024-03-29T15:54:48;14.00;1.00
5415;DHT22;2730;51.512;7.504;2024-03-29T15:57:15;13.90;1.00
5415;DHT22;2730;51.512;7.504;2024-03-29T15:59:41;13.80;1.00
5415;DHT22;2730;51.512;7.504;2024-03-29T16:02:13;13.70;1.00
5415;DHT22;2730;51.512;7.504;2024-03-29T16:04:41;13.70;1.00
5415;DHT22;2730;51.512;7.504;2024-03-29T16:07:09;13.60;1.00
5415;DHT22;2730;51.512;7.504;2024-03-29T16:09:36;13.60;1.00
5415;DHT22;2730;51.512;7.504;2024-03-29T16:12:05;13.60;1.00
5415;DHT22;2730;51.512;7.504;2024-03-29T16:14:32;13.50;1.00
5415;DHT22;2730;51.512;7.504;2024-03-29T16:16:58;13.40;1.00
5415;DHT22;2730;51.512;7.504;2024-03-29T16:19:24;13.40;1.00